Data for 07/24/2007

Time Sea-Level Adjusted Pressure Absolute Pressure Temperature Relative Humidity Dew Point   
(mb) (inHg) (mb) (inHg) (C) (F) (%) (C) (F)
00:05 1016 30 846 24.98 26.3 79.4 29 7.1 44.8
00:10 1016 30 846 24.98 26.4 79.4 29 7 44.7
00:15 1016 30 846 24.98 26.4 79.4 29 7.2 44.9
00:20 1016 30 846 24.98 26.3 79.4 29 7.1 44.8
00:25 1016 30 846 24.98 26.3 79.3 29 7 44.7
00:30 1016 30 846 24.98 26.3 79.3 28 6.8 44.3
00:35 1016 30 845 24.95 26.3 79.4 28 6.6 43.9
00:40 1016 30 845 24.95 26.5 79.6 27 6 42.8
00:45 1016 30 845 24.95 26.7 80 27 6.2 43.2
00:50 1016 30 845 24.95 26.7 80 27 6.3 43.4
00:55 1016 30 845 24.95 26.7 80 27 6.3 43.3
01:00 1016 30 846 24.98 26.7 80.1 28 6.8 44.2
01:05 1016 30 846 24.98 26.2 79.1 31 7.8 46.1
01:10 1016 30 846 24.98 25.6 78.2 31 7.6 45.6
01:15 1016 30 846 24.98 25.5 77.9 32 8 46.3
01:20 1016 30 846 24.98 25.6 78.1 31 7.4 45.3
01:25 1017 30.03 846 24.98 25.8 78.5 30 6.9 44.5
01:30 1017 30.03 846 24.98 25.9 78.6 29 6.9 44.5
01:35 1016 30 846 24.98 25.9 78.6 31 7.6 45.6
01:40 1016 30 846 24.98 25.6 78.1 32 8.1 46.6
01:45 1016 30 846 24.98 25.1 77.2 34 8.5 47.4
01:50 1016 30 845 24.95 25.7 78.3 31 7.5 45.5
01:55 1016 30 846 24.98 25.9 78.6 30 7.2 45
02:00 1016 30 845 24.95 25.6 78.2 31 7.6 45.7
02:05 1016 30 845 24.95 25.1 77.1 33 7.9 46.3
02:10 1016 30 845 24.95 24.8 76.6 34 8.1 46.6
02:15 1016 30 845 24.95 24.6 76.2 35 8.2 46.7
02:20 1016 30 845 24.95 24.3 75.8 35 8.2 46.7
02:25 1016 30 845 24.95 24.3 75.7 33 7.3 45.1
02:30 1016 30 845 24.95 25.2 77.4 30 6.7 44
02:35 1016 30 845 24.95 25 77 32 7.5 45.6
02:40 1016 30 845 24.95 24.8 76.6 32 7.3 45.1
02:45 1016 30 845 24.95 24.9 76.8 32 7.1 44.8
02:50 1016 30 845 24.95 25.2 77.3 31 7.1 44.9
02:55 1016 30 845 24.95 24.9 76.8 32 7.4 45.3
03:00 1016 30 845 24.95 24.9 76.8 33 7.8 46
03:05 1016 30 845 24.95 24.6 76.2 32 7.2 45
03:10 1016 30 846 24.98 24.6 76.3 33 7.7 45.9
03:15 1016 30 846 24.98 24.7 76.4 32 7.2 45
03:20 1016 30 845 24.95 25.4 77.8 30 7 44.5
03:25 1016 30 845 24.95 25.4 77.7 31 7.4 45.3
03:30 1016 30 845 24.95 24.9 76.8 32 7.5 45.5
03:35 1016 30 845 24.95 24.6 76.3 37 9.3 48.8
03:40 1016 30 845 24.95 24 75.1 37 8.6 47.5
03:45 1016 30 845 24.95 23.1 73.5 40 8.8 47.9
03:50 1016 30 845 24.95 22.5 72.4 41 8.7 47.7
03:55 1016 30 845 24.95 22.3 72.2 39 7.9 46.1
04:00 1016 30 845 24.95 22.9 73.1 37 7.7 45.9
04:05 1016 30 845 24.95 23 73.3 38 8.1 46.6
04:10 1016 30 845 24.95 23.2 73.7 35 7.1 44.7
04:15 1016 30 845 24.95 23.8 74.9 33 6.7 44.1
04:20 1016 30 845 24.95 24.1 75.3 34 7.6 45.7
04:25 1016 30 845 24.95 23.9 75 35 7.7 45.8
04:30 1016 30 845 24.95 23.5 74.2 35 7.5 45.6
04:35 1016 30 845 24.95 23.4 74.1 37 7.9 46.2
04:40 1016 30 845 24.95 23.4 74.1 36 7.7 45.9
04:45 1016 30 845 24.95 22.8 73.1 39 8.3 46.9
04:50 1016 30 845 24.95 22.1 71.7 43 9 48.2
04:55 1016 30 845 24.95 21.4 70.6 45 9.3 48.7
05:00 1016 30 845 24.95 21.3 70.3 44 8.9 47.9
05:05 1016 30 845 24.95 21.3 70.3 45 9.1 48.5
05:10 1016 30 845 24.95 21.6 70.9 41 7.9 46.2
05:15 1016 30 845 24.95 22.2 72 39 7.8 46.1
05:20 1016 30 845 24.95 22.6 72.8 38 7.7 45.9
05:25 1016 30 845 24.95 22.5 72.6 40 8.3 47
05:30 1016 30 845 24.95 22.3 72.2 39 7.9 46.1
05:35 1016 30 845 24.95 22.4 72.4 44 9.9 49.7
05:40 1016 30 845 24.95 21.9 71.4 45 9.4 49
05:45 1016 30 845 24.95 21.6 71 44 8.9 48
05:50 1016 30 845 24.95 21.6 70.9 40 7.7 45.8
05:55 1016 30 845 24.95 22.3 72.1 41 8.7 47.6
06:00 1016 30 845 24.95 21.8 71.2 44 9 48.3
06:05 1016 30 845 24.95 21.7 71 39 7.3 45.2
06:10 1016 30 845 24.95 22.3 72.1 38 7.4 45.3
06:15 1016 30 845 24.95 22.5 72.5 38 7.9 46.1
06:20 1016 30 845 24.95 22.1 71.8 40 8.2 46.8
06:25 1016 30 845 24.95 21.9 71.3 45 9.7 49.5
06:30 1016 30 845 24.95 21.6 70.8 43 8.5 47.4
06:35 1016 30 845 24.95 21 69.9 45 8.7 47.7
06:40 1016 30 845 24.95 21 69.9 41 7.5 45.5
06:45 1016 30 846 24.98 21.5 70.6 40 7.6 45.8
06:50 1016 30 846 24.98 21.7 71 41 7.9 46.2
06:55 1016 30 846 24.98 21.6 70.9 45 9.4 49
07:00 1016 30 846 24.98 21.7 71.1 40 7.8 46.1
07:05 1016 30 846 24.98 21.9 71.5 42 8.5 47.3
07:10 1016 30 845 24.95 21.8 71.3 47 10.3 50.5
07:15 1016 30 845 24.95 21.5 70.6 47 9.7 49.5
07:20 1016 30 845 24.95 21 69.8 54 11.3 52.4
07:25 1016 30 845 24.95 20.7 69.2 51 10.2 50.4
07:30 1016 30 845 24.95 20.9 69.6 48 9.5 49
07:35 1016 30 845 24.95 21.4 70.5 48 10.1 50.2
07:40 1016 30 845 24.95 21.7 71.1 52 11.5 52.6
07:45 1016 30 845 24.95 21.8 71.3 49 10.7 51.3
07:50 1016 30 845 24.95 22.1 71.7 48 10.7 51.3
07:55 1016 30 845 24.95 22.4 72.3 50 11.6 52.9
08:00 1016 30 845 24.95 22.5 72.6 48 11.3 52.3
08:05 1016 30 846 24.98 22.8 73 53 12.9 55.3
08:10 1016 30 846 24.98 23 73.4 50 12.3 54.2
08:15 1016 30 846 24.98 23.4 74.2 53 13.4 56.1
08:20 1016 30 846 24.98 24 75.1 47 12.1 53.8
08:25 1017 30.03 846 24.98 24.6 76.3 48 13.1 55.6
08:30 1017 30.03 846 24.98 24.9 76.8 48 13.2 55.8
08:35 1017 30.03 846 24.98 25.1 77.1 52 14.8 58.6
08:40 1017 30.03 846 24.98 25 76.9 53 14.8 58.7
08:45 1017 30.03 846 24.98 24.9 76.8 49 13.8 56.8
08:50 1017 30.03 846 24.98 24.9 76.8 51 14.1 57.4
08:55 1017 30.03 846 24.98 25.2 77.4 46 12.9 55.2
09:00 1017 30.03 846 24.98 25.8 78.4 42 12.1 53.7
09:05 1017 30.03 846 24.98 26.7 80 41 12.7 54.8
09:10 1017 30.03 846 24.98 27.6 81.7 33 10 50.1
09:15 1017 30.03 846 24.98 28.3 83 32 10.2 50.4
09:20 1017 30.03 846 24.98 29 84.2 32 10.8 51.5
09:25 1017 30.03 846 24.98 29.4 84.8 30 10.4 50.8
09:30 1017 30.03 846 24.98 30 86 28 9.7 49.5
09:35 1017 30.03 846 24.98 29.8 85.6 29 10.1 50.2
09:40 1017 30.03 846 24.98 29 84.3 32 10.9 51.6
09:45 1017 30.03 846 24.98 28.9 84 32 10.9 51.7
09:50 1016 30 846 24.98 29.2 84.5 31 10.4 50.8
09:55 1017 30.03 846 24.98 29.3 84.7 29 9.9 49.8
10:00 1017 30.03 846 24.98 29.5 85 27 9 48.3
10:05 1016 30 846 24.98 29.5 85.2 28 9.6 49.2
10:10 1016 30 846 24.98 29.8 85.7 27 9 48.2
10:15 1016 30 846 24.98 30.1 86.2 29 10.3 50.5
10:20 1016 30 846 24.98 30.1 86.1 27 9.5 49.1
10:25 1016 30 846 24.98 29.5 85.1 27 9.1 48.3
10:30 1016 30 846 24.98 29.4 84.9 28 9.3 48.8
10:35 1016 30 845 24.95 29.5 85 26 8.3 47
10:40 1016 30 845 24.95 29.7 85.4 27 8.8 47.9
10:45 1016 30 845 24.95 30.4 86.6 27 9.4 48.8
10:50 1016 30 845 24.95 29.9 85.8 26 8.7 47.7
10:55 1016 30 845 24.95 29.7 85.5 27 9.1 48.3
11:00 1016 30 845 24.95 30 86 27 9.5 49.1
11:05 1016 30 845 24.95 30.3 86.6 26 9.1 48.4
11:10 1016 30 845 24.95 30 85.9 28 9.6 49.2
11:15 1016 30 845 24.95 29.1 84.4 28 9.1 48.4
11:20 1016 30 845 24.95 29 84.1 29 9.5 49.1
11:25 1016 30 845 24.95 29.7 85.4 27 9.2 48.5
11:30 1016 30 845 24.95 30.3 86.5 28 10 49.9
11:35 1016 30 845 24.95 30 85.9 27 9.4 49
11:40 1016 30 846 24.98 30.2 86.3 28 10.1 50.1
11:45 1016 30 845 24.95 30.7 87.3 25 9 48.3
11:50 1016 30 845 24.95 31.3 88.4 24 8.7 47.7
11:55 1016 30 845 24.95 31.4 88.5 24 8.7 47.7
12:00 1016 30 845 24.95 31.4 88.6 24 8.6 47.4
12:05 1016 30 845 24.95 31.1 88.1 24 8.3 46.9
12:10 1016 30 845 24.95 31 87.8 23 8.1 46.6
12:15 1016 30 845 24.95 31.1 88 25 9 48.2
12:20 1016 30 845 24.95 31.1 88 24 8.4 47.2
12:25 1016 30 845 24.95 31.2 88.1 24 8.4 47.2
12:30 1016 30 845 24.95 31.3 88.3 23 8 46.5
12:35 1016 30 845 24.95 31.4 88.4 23 7.9 46.2
12:40 1016 30 845 24.95 31.2 88.2 25 9.2 48.6
12:45 1016 30 845 24.95 31 87.7 27 9.9 49.9
12:50 1016 30 845 24.95 30.6 87.1 29 10.9 51.7
12:55 1016 30 845 24.95 30.6 87.1 28 10.5 50.9
13:00 1016 30 845 24.95 29.9 85.8 26 8.9 47.9
13:05 1016 30 845 24.95 30 86.1 26 8.9 48
13:10 1016 30 845 24.95 31 87.7 24 8.4 47.1
13:15 1016 30 845 24.95 30.7 87.3 25 8.6 47.5
13:20 1016 30 845 24.95 30.3 86.5 25 8.2 46.8
13:25 1016 30 845 24.95 30.3 86.6 24 8 46.5
13:30 1016 30 845 24.95 30.2 86.4 25 8.5 47.3
13:35 1016 30 845 24.95 29.9 85.9 26 8.4 47.2
13:40 1016 30 845 24.95 29.4 85 26 8.3 46.9
13:45 1016 30 846 24.98 29 84.1 26 8 46.5
13:50 1016 30 846 24.98 28.6 83.4 28 8.8 47.8
13:55 1017 30.03 846 24.98 28.1 82.6 30 9.4 48.9
14:00 1017 30.03 846 24.98 27.6 81.7 31 9.4 49
14:05 1017 30.03 846 24.98 27.2 81 33 9.7 49.4
14:10 1017 30.03 846 24.98 26.7 80 40 12.1 53.7
14:15 1017 30.03 846 24.98 25.3 77.5 43 12.2 53.9
14:20 1017 30.03 846 24.98 24.4 76 45 11.8 53.2
14:25 1018 30.06 847 25.01 24.3 75.8 45 11.7 53.1
14:30 1018 30.06 847 25.01 24.4 75.8 43 11.1 52
14:35 1018 30.06 847 25.01 24.2 75.6 43 10.9 51.6
14:40 1018 30.06 847 25.01 24 75.1 49 12.8 55.1
14:45 1018 30.06 847 25.01 22.8 73.1 58 14.3 57.7
14:50 1018 30.06 848 25.04 22 71.5 58 13.5 56.3
14:55 1018 30.06 848 25.04 21.8 71.2 59 13.6 56.4
15:00 1018 30.06 847 25.01 22.1 71.8 57 13.2 55.8
15:05 1018 30.06 847 25.01 22.9 73.2 55 13.5 56.2
15:10 1018 30.06 847 25.01 23.1 73.5 54 13.4 56.1
15:15 1018 30.06 847 25.01 22.9 73.3 52 12.7 54.9
15:20 1018 30.06 847 25.01 23.1 73.5 52 12.9 55.2
15:25 1018 30.06 847 25.01 23.3 73.9 51 12.8 55
15:30 1019 30.09 848 25.04 23.5 74.3 51 12.8 55.1
15:35 1019 30.09 848 25.04 23 73.3 54 13.4 56.1
15:40 1019 30.09 848 25.04 23 73.4 53 13 55.3
15:45 1019 30.09 848 25.04 23.2 73.7 52 13 55.4
15:50 1019 30.09 848 25.04 23.3 74 52 13 55.4
15:55 1019 30.09 848 25.04 23.6 74.6 49 12.6 54.7
16:00 1019 30.09 848 25.04 24.4 75.8 46 12.2 53.9
16:05 1019 30.09 848 25.04 24.9 76.8 46 12.6 54.7
16:10 1019 30.09 848 25.04 24.9 76.9 45 12.5 54.5
16:15 1019 30.09 848 25.04 25 77.1 43 11.7 53.1
16:20 1019 30.09 848 25.04 25.4 77.8 43 12.3 54.2
16:25 1019 30.09 848 25.04 25.6 78.2 41 11.7 53.1
16:30 1019 30.09 848 25.04 25.3 77.5 43 12.1 53.7
16:35 1018 30.06 848 25.04 24.8 76.7 46 12.5 54.5
16:40 1018 30.06 848 25.04 24.4 75.8 45 11.9 53.4
16:45 1018 30.06 847 25.01 25.3 77.5 42 11.8 53.3
16:50 1018 30.06 847 25.01 25.6 78.1 41 11.7 53.1
16:55 1018 30.06 848 25.04 26.1 78.9 43 12.7 54.8
17:00 1018 30.06 847 25.01 26 78.7 42 12.4 54.3
17:05 1018 30.06 847 25.01 26.5 79.7 43 13.1 55.5
17:10 1018 30.06 847 25.01 25.4 77.7 45 12.9 55.3
17:15 1018 30.06 847 25.01 25 77 45 12.4 54.3
17:20 1018 30.06 847 25.01 25.3 77.5 41 11.4 52.6
17:25 1018 30.06 847 25.01 26.3 79.4 38 11.2 52.1
17:30 1018 30.06 847 25.01 26.4 79.5 39 11.6 52.8
17:35 1018 30.06 847 25.01 26.3 79.3 39 11.6 52.9
17:40 1018 30.06 847 25.01 26.4 79.5 37 10.9 51.6
17:45 1018 30.06 847 25.01 26.7 80.1 39 11.8 53.2
17:50 1018 30.06 847 25.01 26.3 79.4 39 11.7 53.1
17:55 1018 30.06 847 25.01 25.8 78.4 42 12 53.7
18:00 1018 30.06 847 25.01 25.4 77.7 43 12 53.6
18:05 1018 30.06 847 25.01 25.4 77.7 42 11.7 53
18:10 1018 30.06 847 25.01 25 76.9 43 11.7 53
18:15 1018 30.06 847 25.01 24.8 76.6 44 11.9 53.4
18:20 1017 30.03 847 25.01 24.2 75.6 49 13.1 55.6
18:25 1017 30.03 847 25.01 23.7 74.6 51 13.2 55.8
18:30 1017 30.03 847 25.01 23.4 74.1 52 13.2 55.8
18:35 1017 30.03 847 25.01 23.2 73.8 54 13.7 56.6
18:40 1017 30.03 847 25.01 23.1 73.6 56 14.1 57.3
18:45 1017 30.03 847 25.01 23 73.5 58 14.6 58.2
18:50 1017 30.03 847 25.01 22.8 73 60 14.8 58.6
18:55 1017 30.03 847 25.01 22.7 72.9 60 14.8 58.6
19:00 1018 30.06 847 25.01 22.6 72.8 63 15.4 59.7
19:05 1018 30.06 847 25.01 22.4 72.2 65 15.7 60.2
19:10 1018 30.06 847 25.01 22.3 72.1 68 16.3 61.3
19:15 1018 30.06 847 25.01 22.1 71.8 69 16.3 61.4
19:20 1018 30.06 847 25.01 21.8 71.2 68 15.8 60.4
19:25 1017 30.03 847 25.01 21.6 70.8 71 16.2 61.1
19:30 1017 30.03 847 25.01 21.3 70.4 69 15.6 60.1
19:35 1017 30.03 847 25.01 20.8 69.4 72 15.7 60.3
19:40 1017 30.03 847 25.01 20.1 68.1 75 15.5 59.9
19:45 1017 30.03 847 25.01 19.8 67.6 78 15.9 60.5
19:50 1018 30.06 847 25.01 19.6 67.2 79 15.9 60.6
19:55 1018 30.06 847 25.01 19.5 67.1 79 15.7 60.3
20:00 1018 30.06 847 25.01 19.6 67.3 75 15.1 59.1
20:05 1018 30.06 847 25.01 19.6 67.4 76 15.4 59.6
20:10 1018 30.06 847 25.01 19.5 67 76 15.1 59.2
20:15 1018 30.06 847 25.01 19.4 66.9 77 15.3 59.5
20:20 1018 30.06 847 25.01 19.3 66.8 77 15.3 59.6
20:25 1018 30.06 847 25.01 19.4 66.8 77 15.2 59.4
20:30 1018 30.06 847 25.01 19.4 66.8 77 15.3 59.5
20:35 1018 30.06 847 25.01 19.4 66.9 77 15.3 59.5
20:40 1018 30.06 847 25.01 19.4 66.9 76 15.2 59.3
20:45 1018 30.06 847 25.01 19.3 66.7 76 15 59
20:50 1018 30.06 847 25.01 19.3 66.7 75 14.8 58.7
20:55 1018 30.06 847 25.01 19.2 66.6 75 14.8 58.6
21:00 1018 30.06 847 25.01 19.3 66.7 73 14.4 58
21:05 1018 30.06 847 25.01 19.4 66.9 73 14.5 58.1
21:10 1018 30.06 847 25.01 19.4 66.9 73 14.5 58.2
21:15 1017 30.03 847 25.01 19.4 66.9 74 14.7 58.5
21:20 1017 30.03 847 25.01 19.2 66.6 75 14.8 58.7
21:25 1017 30.03 846 24.98 19.1 66.3 76 14.8 58.7
21:30 1017 30.03 847 25.01 19 66.1 77 14.9 58.9
21:35 1017 30.03 847 25.01 18.9 66 77 14.7 58.5
21:40 1017 30.03 847 25.01 18.9 66.1 76 14.7 58.5
21:45 1017 30.03 846 24.98 18.9 66 77 14.7 58.5
21:50 1017 30.03 846 24.98 18.9 66 77 14.9 58.8
21:55 1017 30.03 847 25.01 18.8 65.8 78 14.9 58.9
22:00 1017 30.03 847 25.01 18.8 65.8 77 14.6 58.3
22:05 1017 30.03 846 24.98 18.9 66.1 75 14.4 57.9
22:10 1017 30.03 846 24.98 19.1 66.3 74 14.4 57.9
22:15 1017 30.03 846 24.98 19.1 66.4 74 14.5 58
22:20 1017 30.03 846 24.98 19 66.3 75 14.5 58.1
22:25 1017 30.03 846 24.98 18.9 66.1 75 14.6 58.2
22:30 1017 30.03 846 24.98 18.8 65.8 77 14.6 58.3
22:35 1017 30.03 846 24.98 18.7 65.6 77 14.7 58.4
22:40 1017 30.03 846 24.98 18.6 65.4 77 14.6 58.3
22:45 1017 30.03 846 24.98 18.6 65.6 77 14.5 58.2
22:50 1017 30.03 846 24.98 18.7 65.6 76 14.5 58
22:55 1017 30.03 846 24.98 18.7 65.7 75 14.3 57.7
23:00 1017 30.03 847 25.01 18.9 65.9 75 14.4 57.9
23:05 1017 30.03 847 25.01 18.9 66.1 74 14.3 57.8
23:10 1018 30.06 847 25.01 19 66.2 74 14.4 57.9
23:15 1018 30.06 847 25.01 19.1 66.3 74 14.3 57.8
23:20 1018 30.06 847 25.01 19.2 66.5 73 14.3 57.7
23:25 1018 30.06 847 25.01 19.2 66.5 73 14.3 57.7
23:30 1018 30.06 847 25.01 19.3 66.7 73 14.3 57.8
23:35 1018 30.06 847 25.01 19.2 66.6 74 14.4 58
23:40 1018 30.06 847 25.01 19.2 66.6 78 15.3 59.5
23:45 1018 30.06 847 25.01 19.1 66.4 77 15 59
23:50 1018 30.06 847 25.01 19 66.1 78 15 59.1
23:55 1018 30.06 847 25.01 18.7 65.7 77 14.7 58.5
24:00 1018 30.06 847 25.01 18.6 65.4 79 14.9 58.8